Time;durP1;ratioP1;P1;durP2;ratioP2;P2;SDS_P1;SDS_P2;PMS_P1;PMS_P2;Temp;Humidity;BMP_temperature;BMP_pressure;BME280_temperature;BME280_humidity;BME280_pressure;Samples;Min_cycle;Max_cycle;Signal;HPM_P1;HPM_P2
2021/06/06 00:02:21;;;;;;;2.40;2.20;;;;;;;;;;143741;565;46014;-85
2021/06/06 00:04:48;;;;;;;3.80;2.60;;;;;;;;;;143737;614;46013;-85
2021/06/06 00:07:18;;;;;;;4.43;2.92;;;;;;;;;;143739;582;46012;-85
2021/06/06 00:09:46;;;;;;;9.25;3.00;;;;;;;;;;143740;573;46010;-85
2021/06/06 00:12:20;;;;;;;6.82;3.53;;;;;;;;;;143739;580;46022;-85
2021/06/06 00:15:01;;;;;;;3.70;2.70;;;;;;;;;;143736;621;46010;-86
2021/06/06 00:17:28;;;;;;;5.25;2.95;;;;;;;;;;143736;572;46020;-86
2021/06/06 00:20:10;;;;;;;7.93;2.78;;;;;;;;;;143739;574;46010;-88
2021/06/06 00:22:48;;;;;;;4.97;2.70;;;;;;;;;;143740;606;46020;-87
2021/06/06 00:25:24;;;;;;;3.03;2.50;;;;;;;;;;143740;569;46020;-86
2021/06/06 00:27:54;;;;;;;5.97;2.72;;;;;;;;;;143738;564;46021;-86
2021/06/06 00:30:21;;;;;;;4.07;2.90;;;;;;;;;;143737;632;47010;-88
2021/06/06 00:32:58;;;;;;;3.58;2.97;;;;;;;;;;143739;563;46022;-86
2021/06/06 00:35:36;;;;;;;2.90;2.35;;;;;;;;;;143735;674;46010;-86
2021/06/06 00:38:09;;;;;;;6.68;4.07;;;;;;;;;;143740;573;46020;-85
2021/06/06 00:40:38;;;;;;;4.78;2.97;;;;;;;;;;143741;625;46021;-85
2021/06/06 00:43:14;;;;;;;3.30;2.97;;;;;;;;;;143740;705;46023;-85
2021/06/06 00:45:44;;;;;;;3.55;2.58;;;;;;;;;;143738;564;45020;-86
2021/06/06 00:48:18;;;;;;;8.75;2.60;;;;;;;;;;143739;593;46020;-86
2021/06/06 00:50:57;;;;;;;2.97;2.67;;;;;;;;;;143738;603;46010;-84
2021/06/06 00:53:50;;;;;;;8.15;2.90;;;;;;;;;;143742;569;46020;-85
2021/06/06 00:56:30;;;;;;;4.12;2.75;;;;;;;;;;143737;591;46921;-86
2021/06/06 00:59:09;;;;;;;5.00;3.03;;;;;;;;;;143740;608;46020;-85
2021/06/06 01:01:51;;;;;;;3.78;2.80;;;;;;;;;;143742;625;45041;-86
2021/06/06 01:04:25;;;;;;;5.87;3.25;;;;;;;;;;143742;589;46021;-87
2021/06/06 01:07:05;;;;;;;8.63;3.17;;;;;;;;;;143737;675;46010;-85
2021/06/06 01:09:35;;;;;;;5.47;3.37;;;;;;;;;;143738;654;47020;-85
2021/06/06 01:12:30;;;;;;;7.93;3.15;;;;;;;;;;143740;607;46011;-86
2021/06/06 01:15:26;;;;;;;5.70;3.70;;;;;;;;;;143741;659;46020;-87
2021/06/06 01:18:25;;;;;;;4.60;2.92;;;;;;;;;;143736;583;46010;-87
2021/06/06 01:21:40;;;;;;;4.10;3.42;;;;;;;;;;143741;605;46021;-87
2021/06/06 01:24:30;;;;;;;7.40;3.50;;;;;;;;;;143740;578;46020;-86
2021/06/06 01:27:14;;;;;;;4.30;3.22;;;;;;;;;;143739;569;46022;-85
2021/06/06 01:30:25;;;;;;;4.12;3.42;;;;;;;;;;143737;589;46010;-86
2021/06/06 01:33:02;;;;;;;11.60;4.12;;;;;;;;;;143739;576;46020;-87
2021/06/06 01:35:58;;;;;;;4.20;2.75;;;;;;;;;;143739;565;46010;-85
2021/06/06 01:38:39;;;;;;;3.75;3.05;;;;;;;;;;143741;722;46020;-86
2021/06/06 01:41:16;;;;;;;3.97;3.12;;;;;;;;;;143740;616;46010;-86
2021/06/06 01:43:55;;;;;;;5.45;3.20;;;;;;;;;;143738;597;46012;-86
2021/06/06 01:46:32;;;;;;;7.03;4.03;;;;;;;;;;143744;690;46018;-83
2021/06/06 01:49:00;;;;;;;7.22;4.72;;;;;;;;;;143740;588;46021;-86
2021/06/06 01:52:00;;;;;;;9.02;4.35;;;;;;;;;;143735;603;46010;-85
2021/06/06 01:54:35;;;;;;;4.50;3.08;;;;;;;;;;143738;618;46020;-85
2021/06/06 01:57:11;;;;;;;4.68;2.85;;;;;;;;;;143740;725;46010;-86
2021/06/06 01:59:50;;;;;;;9.15;3.28;;;;;;;;;;143737;767;46022;-85
2021/06/06 02:02:27;;;;;;;6.55;4.07;;;;;;;;;;143737;566;46010;-86
2021/06/06 02:05:06;;;;;;;4.28;3.25;;;;;;;;;;143739;756;46013;-86
2021/06/06 02:07:46;;;;;;;4.03;3.05;;;;;;;;;;143742;646;45041;-85
2021/06/06 02:10:37;;;;;;;6.43;3.53;;;;;;;;;;143736;616;46022;-87
2021/06/06 02:13:13;;;;;;;10.07;4.68;;;;;;;;;;143735;586;46010;-85
2021/06/06 02:15:44;;;;;;;6.05;3.37;;;;;;;;;;143740;607;46012;-86
2021/06/06 02:18:19;;;;;;;7.60;4.00;;;;;;;;;;143740;569;46020;-86
2021/06/06 02:20:49;;;;;;;6.22;4.10;;;;;;;;;;143737;630;46023;-86
2021/06/06 02:23:44;;;;;;;8.20;3.10;;;;;;;;;;143734;565;46010;-86
2021/06/06 02:26:56;;;;;;;10.40;4.12;;;;;;;;;;143739;615;46020;-86
2021/06/06 02:30:15;;;;;;;6.82;3.85;;;;;;;;;;143737;657;46012;-87
2021/06/06 02:33:19;;;;;;;4.80;3.10;;;;;;;;;;143739;605;46021;-85
2021/06/06 02:35:54;;;;;;;;;;;;;;;;;;143741;979;46010;-85
2021/06/06 02:38:47;;;;;;;4.97;3.03;;;;;;;;;;143744;751;46020;-85
2021/06/06 02:41:33;;;;;;;5.03;3.75;;;;;;;;;;143744;679;46018;-85
2021/06/06 02:44:27;;;;;;;5.97;3.78;;;;;;;;;;143740;657;46022;-85
2021/06/06 02:47:10;;;;;;;6.97;4.95;;;;;;;;;;143736;580;46012;-85
2021/06/06 02:49:42;;;;;;;;;;;;;;;;;;143742;981;46021;-84
2021/06/06 02:52:23;;;;;;;5.18;3.53;;;;;;;;;;143749;587;46010;-85
2021/06/06 02:55:06;;;;;;;8.82;4.20;;;;;;;;;;143741;631;46022;-86
2021/06/06 02:57:37;;;;;;;;;;;;;;;;;;143741;979;46010;-86
2021/06/06 03:00:18;;;;;;;6.25;4.18;;;;;;;;;;143750;641;45020;-86
2021/06/06 03:03:13;;;;;;;;;;;;;;;;;;;;;
2021/06/06 03:05:43;;;;;;;8.00;5.45;;;;;;;;;;143738;596;46020;-85
2021/06/06 03:08:14;;;;;;;4.93;3.70;;;;;;;;;;143738;647;46012;-87
2021/06/06 03:10:48;;;;;;;7.57;4.47;;;;;;;;;;143741;608;46021;-85
2021/06/06 03:13:52;;;;;;;8.82;4.65;;;;;;;;;;143741;652;46020;-85
2021/06/06 03:16:22;;;;;;;5.62;3.00;;;;;;;;;;143741;640;46020;-87
2021/06/06 03:18:56;;;;;;;7.20;3.35;;;;;;;;;;143739;641;46012;-86
2021/06/06 03:21:42;;;;;;;7.50;3.95;;;;;;;;;;143739;805;46020;-84
2021/06/06 03:24:47;;;;;;;5.55;3.35;;;;;;;;;;143740;571;46012;-87
2021/06/06 03:27:37;;;;;;;7.22;3.40;;;;;;;;;;143741;649;46020;-86
2021/06/06 03:30:30;;;;;;;6.93;4.22;;;;;;;;;;143738;657;46012;-85
2021/06/06 03:33:03;;;;;;;6.87;3.05;;;;;;;;;;143741;604;46021;-86
2021/06/06 03:35:43;;;;;;;5.20;3.37;;;;;;;;;;143739;633;46012;-84
2021/06/06 03:38:20;;;;;;;7.15;3.37;;;;;;;;;;143741;660;46020;-84
2021/06/06 03:40:51;;;;;;;7.28;3.33;;;;;;;;;;143735;794;46013;-86
2021/06/06 03:43:23;;;;;;;7.57;3.47;;;;;;;;;;143740;587;46020;-86
2021/06/06 03:45:54;;;;;;;12.37;3.60;;;;;;;;;;143740;613;46012;-85
2021/06/06 03:48:27;;;;;;;9.52;3.50;;;;;;;;;;143739;578;46021;-85
2021/06/06 03:50:57;;;;;;;5.65;3.15;;;;;;;;;;143742;569;45918;-85
2021/06/06 03:53:36;;;;;;;7.18;3.12;;;;;;;;;;143743;625;46020;-86
2021/06/06 03:56:10;;;;;;;4.47;3.15;;;;;;;;;;143740;776;46012;-86
2021/06/06 03:58:48;;;;;;;8.68;3.40;;;;;;;;;;143740;631;46022;-86
2021/06/06 04:01:21;;;;;;;8.38;3.37;;;;;;;;;;143740;594;46012;-86
2021/06/06 04:03:52;;;;;;;5.15;3.45;;;;;;;;;;143741;579;46020;-86
2021/06/06 04:06:19;;;;;;;9.35;3.42;;;;;;;;;;143742;596;46012;-87
2021/06/06 04:08:45;;;;;;;5.45;3.60;;;;;;;;;;143738;602;46014;-86
2021/06/06 04:11:16;;;;;;;8.07;3.67;;;;;;;;;;143741;564;46021;-87
2021/06/06 04:13:43;;;;;;;8.38;4.12;;;;;;;;;;143739;621;46014;-86
2021/06/06 04:16:09;;;;;;;5.97;3.33;;;;;;;;;;143740;564;46012;-86
2021/06/06 04:18:47;;;;;;;6.95;3.20;;;;;;;;;;143744;603;46023;-85
2021/06/06 04:21:30;;;;;;;9.07;3.83;;;;;;;;;;143743;670;46918;-84
2021/06/06 04:23:57;;;;;;;4.95;3.65;;;;;;;;;;143745;607;45020;-86
2021/06/06 04:26:25;;;;;;;10.45;4.10;;;;;;;;;;143741;646;45044;-87
2021/06/06 04:28:52;;;;;;;6.12;3.15;;;;;;;;;;143740;694;46020;-85
2021/06/06 04:31:20;;;;;;;12.75;3.42;;;;;;;;;;143737;645;46012;-86
2021/06/06 04:33:47;;;;;;;9.05;3.50;;;;;;;;;;143735;591;46021;-84
2021/06/06 04:36:14;;;;;;;7.20;3.45;;;;;;;;;;143739;606;46012;-85
2021/06/06 04:38:41;;;;;;;4.30;3.22;;;;;;;;;;143739;656;46022;-84
2021/06/06 04:41:10;;;;;;;5.18;3.17;;;;;;;;;;143739;641;46013;-84
2021/06/06 04:43:37;;;;;;;5.53;3.67;;;;;;;;;;143740;628;46020;-85
2021/06/06 04:46:05;;;;;;;5.75;3.87;;;;;;;;;;143739;606;46013;-85
2021/06/06 04:48:38;;;;;;;7.55;4.62;;;;;;;;;;143738;566;46015;-84
2021/06/06 04:51:13;;;;;;;7.32;3.72;;;;;;;;;;143738;680;46012;-85
2021/06/06 04:53:40;;;;;;;10.82;3.75;;;;;;;;;;143741;589;46020;-85
2021/06/06 04:56:12;;;;;;;9.63;4.35;;;;;;;;;;143743;618;46012;-86
2021/06/06 04:58:39;;;;;;;5.17;3.47;;;;;;;;;;143741;624;46022;-85
2021/06/06 05:01:08;;;;;;;8.80;3.70;;;;;;;;;;143737;587;46012;-84
2021/06/06 05:03:35;;;;;;;5.60;3.50;;;;;;;;;;143741;606;46015;-86
2021/06/06 05:06:03;;;;;;;5.20;3.10;;;;;;;;;;143741;667;46012;-87
2021/06/06 05:08:29;;;;;;;9.52;3.33;;;;;;;;;;143742;591;46020;-85
2021/06/06 05:10:56;;;;;;;9.88;3.80;;;;;;;;;;143737;607;46012;-86
2021/06/06 05:13:23;;;;;;;4.53;3.50;;;;;;;;;;143739;571;46020;-86
2021/06/06 05:15:52;;;;;;;7.07;3.60;;;;;;;;;;143743;607;46020;-85
2021/06/06 05:18:20;;;;;;;4.85;3.40;;;;;;;;;;143743;588;46023;-85
2021/06/06 05:20:48;;;;;;;7.45;2.87;;;;;;;;;;143740;678;46012;-86
2021/06/06 05:23:17;;;;;;;4.62;3.50;;;;;;;;;;143740;614;46020;-85
2021/06/06 05:25:44;;;;;;;4.00;3.08;;;;;;;;;;143742;581;46012;-84
2021/06/06 05:28:14;;;;;;;8.23;2.70;;;;;;;;;;143740;591;46014;-85
2021/06/06 05:30:41;;;;;;;9.95;3.58;;;;;;;;;;143738;571;46012;-86
2021/06/06 05:33:09;;;;;;;8.00;3.40;;;;;;;;;;143741;577;46021;-86
2021/06/06 05:35:38;;;;;;;4.15;3.12;;;;;;;;;;143743;654;46012;-86
2021/06/06 05:38:06;;;;;;;10.85;2.90;;;;;;;;;;143741;591;46022;-85
2021/06/06 05:40:35;;;;;;;9.05;3.37;;;;;;;;;;143741;589;46012;-86
2021/06/06 05:43:02;;;;;;;9.27;3.55;;;;;;;;;;143743;569;46020;-85
2021/06/06 05:45:30;;;;;;;6.15;2.92;;;;;;;;;;143741;571;46012;-86
2021/06/06 05:47:57;;;;;;;6.32;3.40;;;;;;;;;;143739;576;46022;-85
2021/06/06 05:50:29;;;;;;;7.37;3.22;;;;;;;;;;143739;582;46012;-86
2021/06/06 05:52:55;;;;;;;11.95;3.00;;;;;;;;;;143745;602;46020;-86
2021/06/06 05:55:24;;;;;;;11.50;2.70;;;;;;;;;;143741;601;46012;-83
2021/06/06 05:57:51;;;;;;;10.07;3.05;;;;;;;;;;143739;573;46038;-85
2021/06/06 06:00:26;;;;;;;6.03;3.00;;;;;;;;;;143742;577;46020;-86
2021/06/06 06:02:53;;;;;;;6.22;2.83;;;;;;;;;;143743;604;46021;-85
2021/06/06 06:05:21;;;;;;;7.18;3.17;;;;;;;;;;143742;604;46012;-86
2021/06/06 06:07:48;;;;;;;9.00;2.87;;;;;;;;;;143742;657;46022;-86
2021/06/06 06:10:19;;;;;;;10.43;2.58;;;;;;;;;;143743;620;46020;-84
2021/06/06 06:12:48;;;;;;;12.85;4.32;;;;;;;;;;143742;574;46020;-85
2021/06/06 06:15:16;;;;;;;4.72;2.62;;;;;;;;;;143744;585;46012;-86
2021/06/06 06:17:43;;;;;;;6.60;2.75;;;;;;;;;;143740;580;46016;-85
2021/06/06 06:20:15;;;;;;;7.20;3.00;;;;;;;;;;143741;594;46012;-85
2021/06/06 06:22:42;;;;;;;6.93;3.12;;;;;;;;;;143743;605;46020;-86
2021/06/06 06:25:12;;;;;;;9.30;3.45;;;;;;;;;;143741;569;46012;-85
2021/06/06 06:27:39;;;;;;;8.88;3.17;;;;;;;;;;143741;582;46020;-86
2021/06/06 06:30:10;;;;;;;8.13;3.95;;;;;;;;;;143736;583;46014;-85
2021/06/06 06:32:38;;;;;;;9.47;4.77;;;;;;;;;;143744;570;46021;-86
2021/06/06 06:35:06;;;;;;;10.57;5.28;;;;;;;;;;143742;564;46012;-87
2021/06/06 06:37:33;;;;;;;11.15;4.20;;;;;;;;;;143741;607;46022;-86
2021/06/06 06:40:00;;;;;;;14.60;4.10;;;;;;;;;;143740;634;46012;-87
2021/06/06 06:42:27;;;;;;;9.20;3.50;;;;;;;;;;143742;612;46018;-87
2021/06/06 06:44:56;;;;;;;10.35;3.80;;;;;;;;;;143740;613;47012;-86
2021/06/06 06:47:23;;;;;;;8.43;3.75;;;;;;;;;;143741;638;46052;-87
2021/06/06 06:49:51;;;;;;;6.97;3.47;;;;;;;;;;143742;632;46012;-86
2021/06/06 06:52:21;;;;;;;8.65;3.78;;;;;;;;;;143743;624;46020;-87
2021/06/06 06:54:48;;;;;;;10.77;3.65;;;;;;;;;;143741;586;46013;-86
2021/06/06 06:57:14;;;;;;;12.73;3.58;;;;;;;;;;143742;645;46020;-87
2021/06/06 06:59:42;;;;;;;10.32;3.78;;;;;;;;;;143741;625;46020;-85
2021/06/06 07:02:10;;;;;;;7.72;3.65;;;;;;;;;;143741;564;46021;-87
2021/06/06 07:04:36;;;;;;;6.18;2.90;;;;;;;;;;143740;636;46012;-87
2021/06/06 07:07:04;;;;;;;9.68;3.87;;;;;;;;;;143740;582;46020;-88
2021/06/06 07:09:31;;;;;;;8.38;4.15;;;;;;;;;;143740;564;46012;-86
2021/06/06 07:11:59;;;;;;;7.85;4.32;;;;;;;;;;143742;598;46020;-87
2021/06/06 07:14:27;;;;;;;8.82;3.85;;;;;;;;;;143741;612;46012;-87
2021/06/06 07:16:54;;;;;;;10.15;3.85;;;;;;;;;;143741;595;46022;-86
2021/06/06 07:19:27;;;;;;;9.38;4.07;;;;;;;;;;143742;588;45020;-88
2021/06/06 07:21:54;;;;;;;10.20;3.95;;;;;;;;;;143739;588;46020;-87
2021/06/06 07:24:20;;;;;;;24.00;4.80;;;;;;;;;;143743;575;46021;-87
2021/06/06 07:26:50;;;;;;;11.98;4.68;;;;;;;;;;143742;625;46023;-86
2021/06/06 07:29:21;;;;;;;15.85;4.90;;;;;;;;;;143738;586;46012;-86
2021/06/06 07:31:53;;;;;;;10.80;4.97;;;;;;;;;;143741;577;46021;-88
2021/06/06 07:34:24;;;;;;;9.88;3.83;;;;;;;;;;143741;598;46012;-87
2021/06/06 07:36:56;;;;;;;7.22;4.50;;;;;;;;;;143743;581;46020;-86
2021/06/06 07:39:30;;;;;;;11.00;5.45;;;;;;;;;;143742;669;45919;-87
2021/06/06 07:42:00;;;;;;;12.63;4.50;;;;;;;;;;143744;593;46020;-87
2021/06/06 07:44:28;;;;;;;14.05;5.18;;;;;;;;;;143742;601;46012;-88
2021/06/06 07:46:54;;;;;;;11.77;4.95;;;;;;;;;;143743;608;46021;-86
2021/06/06 07:49:22;;;;;;;10.18;5.40;;;;;;;;;;143739;579;46012;-87
2021/06/06 07:51:49;;;;;;;14.05;5.87;;;;;;;;;;143740;576;46026;-86
2021/06/06 07:54:16;;;;;;;11.12;5.50;;;;;;;;;;143745;566;45021;-88
2021/06/06 07:56:47;;;;;;;12.15;5.82;;;;;;;;;;143743;571;46020;-88
2021/06/06 07:59:13;;;;;;;8.73;5.45;;;;;;;;;;143741;569;45919;-87
2021/06/06 08:01:41;;;;;;;22.55;5.05;;;;;;;;;;143738;592;46015;-88
2021/06/06 08:04:08;;;;;;;12.60;5.05;;;;;;;;;;143740;574;46012;-86
2021/06/06 08:06:36;;;;;;;10.60;4.87;;;;;;;;;;143739;593;47014;-86
2021/06/06 08:09:05;;;;;;;14.65;5.20;;;;;;;;;;143741;647;46013;-87
2021/06/06 08:11:33;;;;;;;16.12;4.57;;;;;;;;;;143742;569;46020;-87
2021/06/06 08:13:59;;;;;;;9.80;4.05;;;;;;;;;;143744;565;46020;-85
2021/06/06 08:16:26;;;;;;;14.15;4.87;;;;;;;;;;143737;588;46021;-88
2021/06/06 08:18:52;;;;;;;10.63;5.05;;;;;;;;;;143743;578;46020;-87
2021/06/06 08:21:26;;;;;;;7.05;4.18;;;;;;;;;;143743;569;46020;-88
2021/06/06 08:23:54;;;;;;;12.02;5.05;;;;;;;;;;143740;573;46013;-88
2021/06/06 08:26:24;;;;;;;10.30;5.05;;;;;;;;;;143742;570;46020;-86
2021/06/06 08:28:52;;;;;;;14.05;5.62;;;;;;;;;;143740;577;46012;-87
2021/06/06 08:31:22;;;;;;;14.73;6.07;;;;;;;;;;143742;577;46021;-87
2021/06/06 08:33:49;;;;;;;12.27;4.93;;;;;;;;;;143745;656;46020;-88
2021/06/06 08:36:32;;;;;;;7.37;4.70;;;;;;;;;;143741;593;46022;-87
2021/06/06 08:39:06;;;;;;;37.15;9.57;;;;;;;;;;143740;646;46012;-86
2021/06/06 08:41:47;;;;;;;10.95;5.25;;;;;;;;;;143744;613;46020;-86
2021/06/06 08:44:40;;;;;;;18.37;6.35;;;;;;;;;;143739;608;46012;-85
2021/06/06 08:47:09;;;;;;;;;;;;;;;;;;143743;981;46015;-85
2021/06/06 08:49:45;;;;;;;20.55;5.87;;;;;;;;;;143752;602;45933;-87
2021/06/06 08:52:56;;;;;;;13.77;6.28;;;;;;;;;;143742;589;46020;-86
2021/06/06 08:56:09;;;;;;;10.30;4.47;;;;;;;;;;143747;588;45023;-87
2021/06/06 08:59:11;;;;;;;9.02;5.45;;;;;;;;;;143745;624;46024;-87
2021/06/06 09:01:53;;;;;;;16.85;5.53;;;;;;;;;;143741;574;45021;-88
2021/06/06 09:04:23;;;;;;;13.65;4.82;;;;;;;;;;143741;593;46020;-85
2021/06/06 09:07:30;;;;;;;9.45;4.18;;;;;;;;;;143740;564;46011;-88
2021/06/06 09:10:11;;;;;;;10.70;4.55;;;;;;;;;;143741;642;46025;-86
2021/06/06 09:12:57;;;;;;;;;;;;;;;;;;;;;
2021/06/06 09:15:28;;;;;;;13.05;4.85;;;;;;;;;;143742;605;46020;-87
2021/06/06 09:18:02;;;;;;;8.60;3.62;;;;;;;;;;143742;588;46010;-86
2021/06/06 09:20:52;;;;;;;8.43;4.00;;;;;;;;;;143742;657;46020;-87
2021/06/06 09:23:27;;;;;;;10.07;3.95;;;;;;;;;;143739;570;46011;-86
2021/06/06 09:26:21;;;;;;;8.10;3.47;;;;;;;;;;143742;569;46020;-86
2021/06/06 09:29:18;;;;;;;6.57;3.55;;;;;;;;;;143742;566;46010;-85
2021/06/06 09:31:45;;;;;;;8.95;3.53;;;;;;;;;;143744;618;46023;-86
2021/06/06 09:34:25;;;;;;;6.40;3.62;;;;;;;;;;143740;657;46010;-87
2021/06/06 09:37:16;;;;;;;9.40;4.82;;;;;;;;;;143742;597;46020;-87
2021/06/06 09:39:56;;;;;;;15.05;5.03;;;;;;;;;;143743;599;46012;-87
2021/06/06 09:42:57;;;;;;;;;;;;;;;;;;;;;
2021/06/06 09:45:46;;;;;;;9.30;4.62;;;;;;;;;;143744;590;46020;-85
2021/06/06 09:48:30;;;;;;;11.10;4.78;;;;;;;;;;143743;569;46020;-86
2021/06/06 09:51:12;;;;;;;7.15;4.15;;;;;;;;;;143741;598;46010;-87
2021/06/06 09:53:52;;;;;;;6.18;3.80;;;;;;;;;;143743;587;46021;-85
2021/06/06 09:56:42;;;;;;;6.47;4.25;;;;;;;;;;143750;659;45920;-85
2021/06/06 09:59:34;;;;;;;6.60;3.65;;;;;;;;;;143742;611;45021;-87
2021/06/06 10:02:27;;;;;;;11.12;4.45;;;;;;;;;;143746;637;46010;-86
2021/06/06 10:05:29;;;;;;;11.15;3.70;;;;;;;;;;143739;586;46014;-86
2021/06/06 10:08:08;;;;;;;6.80;3.97;;;;;;;;;;143737;599;46011;-87
2021/06/06 10:10:46;;;;;;;10.35;3.72;;;;;;;;;;143744;601;46020;-86
2021/06/06 10:13:17;;;;;;;6.00;3.62;;;;;;;;;;143740;606;46012;-87
2021/06/06 10:16:03;;;;;;;5.50;3.55;;;;;;;;;;143740;569;46030;-86
2021/06/06 10:18:37;;;;;;;6.03;4.22;;;;;;;;;;143738;577;46010;-86
2021/06/06 10:21:12;;;;;;;7.37;3.80;;;;;;;;;;143740;611;46020;-87
2021/06/06 10:23:43;;;;;;;8.45;3.97;;;;;;;;;;143742;574;46021;-86
2021/06/06 10:26:37;;;;;;;4.90;3.67;;;;;;;;;;143741;596;46022;-86
2021/06/06 10:29:26;;;;;;;9.43;3.72;;;;;;;;;;143741;609;45021;-86
2021/06/06 10:31:57;;;;;;;11.23;4.57;;;;;;;;;;143741;589;46020;-86
2021/06/06 10:34:35;;;;;;;7.95;3.97;;;;;;;;;;143739;566;46023;-85
2021/06/06 10:37:03;;;;;;;6.28;3.75;;;;;;;;;;143740;564;47022;-85
2021/06/06 10:39:33;;;;;;;7.80;3.55;;;;;;;;;;143737;685;46010;-86
2021/06/06 10:42:12;;;;;;;4.62;3.33;;;;;;;;;;143741;579;46020;-87
2021/06/06 10:44:59;;;;;;;8.63;3.25;;;;;;;;;;143741;566;46010;-86
2021/06/06 10:47:44;;;;;;;8.45;3.72;;;;;;;;;;143741;573;46020;-85
2021/06/06 10:50:48;;;;;;;6.28;4.03;;;;;;;;;;143742;606;46020;-86
2021/06/06 10:53:29;;;;;;;10.85;3.83;;;;;;;;;;143740;575;46020;-88
2021/06/06 10:56:14;;;;;;;5.35;3.55;;;;;;;;;;143742;585;46020;-87
2021/06/06 10:58:59;;;;;;;9.43;4.07;;;;;;;;;;143740;570;46022;-87
2021/06/06 11:01:45;;;;;;;8.70;3.95;;;;;;;;;;143737;628;46010;-87
2021/06/06 11:04:46;;;;;;;6.95;3.83;;;;;;;;;;143736;563;46020;-89
2021/06/06 11:07:43;;;;;;;10.73;3.83;;;;;;;;;;143732;585;46011;-85
2021/06/06 11:10:41;;;;;;;9.27;3.70;;;;;;;;;;143740;569;46024;-86
2021/06/06 11:13:27;;;;;;;5.22;3.92;;;;;;;;;;143738;607;46021;-88
2021/06/06 11:16:05;;;;;;;6.45;4.37;;;;;;;;;;143740;587;46020;-88
2021/06/06 11:18:45;;;;;;;6.25;3.62;;;;;;;;;;143738;596;46010;-87
2021/06/06 11:21:12;;;;;;;7.50;5.10;;;;;;;;;;143740;588;46022;-88
2021/06/06 11:24:27;;;;;;;6.15;4.43;;;;;;;;;;143738;569;46010;-87
2021/06/06 11:27:36;;;;;;;7.82;4.18;;;;;;;;;;143736;901;46020;-88
2021/06/06 11:30:40;;;;;;;7.22;4.47;;;;;;;;;;143736;641;46013;-89
2021/06/06 11:33:16;;;;;;;6.37;3.47;;;;;;;;;;143739;581;46020;-88
2021/06/06 11:35:50;;;;;;;6.82;3.95;;;;;;;;;;143738;567;46011;-86
2021/06/06 11:38:41;;;;;;;;;;;;;;;;;;143741;955;47047;-88
2021/06/06 11:41:31;;;;;;;11.07;3.90;;;;;;;;;;143750;964;46014;-87
2021/06/06 11:44:27;;;;;;;14.82;6.47;;;;;;;;;;143740;590;46021;-87
2021/06/06 11:47:08;;;;;;;8.15;4.40;;;;;;;;;;143736;973;46012;-86
2021/06/06 11:50:01;;;;;;;10.30;4.95;;;;;;;;;;143740;574;46020;-87
2021/06/06 11:53:02;;;;;;;14.68;4.15;;;;;;;;;;143739;587;46012;-87
2021/06/06 11:55:41;;;;;;;10.57;4.50;;;;;;;;;;585741;65;89497;-88
2021/06/06 11:58:21;;;;;;;6.07;4.25;;;;;;;;;;143732;585;46012;-87
2021/06/06 12:01:23;;;;;;;4.37;3.42;;;;;;;;;;143734;973;46021;-87
2021/06/06 12:04:05;;;;;;;7.60;3.85;;;;;;;;;;143733;658;46014;-89
2021/06/06 12:06:34;;;;;;;12.18;3.45;;;;;;;;;;143732;981;46022;-88
2021/06/06 12:09:19;;;;;;;12.95;3.33;;;;;;;;;;143732;588;46033;-88
2021/06/06 12:11:46;;;;;;;9.50;3.95;;;;;;;;;;143732;982;46020;-88
2021/06/06 12:14:29;;;;;;;3.75;2.75;;;;;;;;;;143735;715;46013;-88
2021/06/06 12:17:03;;;;;;;5.53;3.95;;;;;;;;;;143731;937;47022;-86
2021/06/06 12:19:50;;;;;;;6.60;3.05;;;;;;;;;;143735;927;45049;-86
2021/06/06 12:22:28;;;;;;;5.90;2.90;;;;;;;;;;143733;824;46021;-85
2021/06/06 12:25:27;;;;;;;8.80;3.65;;;;;;;;;;143736;564;46020;-87
2021/06/06 12:28:06;;;;;;;6.65;3.30;;;;;;;;;;143734;572;46024;-87
2021/06/06 12:30:54;;;;;;;5.00;3.70;;;;;;;;;;143736;578;45021;-87
2021/06/06 12:33:38;;;;;;;7.80;3.00;;;;;;;;;;143734;682;46020;-85
2021/06/06 12:36:27;;;;;;;4.95;2.72;;;;;;;;;;143737;600;46012;-87
2021/06/06 12:39:00;;;;;;;10.10;3.72;;;;;;;;;;143732;972;47023;-88
2021/06/06 12:41:30;;;;;;;4.30;2.92;;;;;;;;;;143734;633;46012;-87
2021/06/06 12:43:58;;;;;;;4.12;3.22;;;;;;;;;;143736;585;46014;-86
2021/06/06 12:46:26;;;;;;;6.25;3.05;;;;;;;;;;143735;719;46012;-85
2021/06/06 12:49:04;;;;;;;7.82;2.85;;;;;;;;;;143732;973;46022;-85
2021/06/06 12:51:49;;;;;;;5.82;2.50;;;;;;;;;;143734;955;46047;-87
2021/06/06 12:54:23;;;;;;;5.10;2.60;;;;;;;;;;143734;705;46020;-86
2021/06/06 12:56:51;;;;;;;5.93;2.80;;;;;;;;;;143737;638;46020;-87
2021/06/06 12:59:29;;;;;;;7.45;2.95;;;;;;;;;;143733;978;46022;-86
2021/06/06 13:02:15;;;;;;;8.38;2.65;;;;;;;;;;143733;959;46012;-85
2021/06/06 13:04:44;;;;;;;4.35;2.50;;;;;;;;;;143734;971;46020;-87
2021/06/06 13:07:38;;;;;;;3.28;2.50;;;;;;;;;;143734;760;46013;-85
2021/06/06 13:10:51;;;;;;;4.47;3.22;;;;;;;;;;143732;974;46024;-87
2021/06/06 13:13:27;;;;;;;4.70;2.90;;;;;;;;;;143732;970;46013;-86
2021/06/06 13:15:57;;;;;;;5.12;2.75;;;;;;;;;;143732;863;46020;-87
2021/06/06 13:18:27;;;;;;;4.32;2.58;;;;;;;;;;143734;569;46020;-87
2021/06/06 13:20:59;;;;;;;5.87;2.65;;;;;;;;;;143732;577;46021;-87
2021/06/06 13:23:35;;;;;;;3.47;2.20;;;;;;;;;;143734;891;46020;-87
2021/06/06 13:26:05;;;;;;;3.30;2.17;;;;;;;;;;143733;577;46014;-87
2021/06/06 13:28:40;;;;;;;4.68;2.50;;;;;;;;;;143734;595;46013;-86
2021/06/06 13:31:40;;;;;;;3.97;2.00;;;;;;;;;;143732;744;46053;-87
2021/06/06 13:34:09;;;;;;;4.25;2.60;;;;;;;;;;143735;881;46012;-88
2021/06/06 13:36:38;;;;;;;4.20;2.53;;;;;;;;;;143733;594;47021;-87
2021/06/06 13:39:20;;;;;;;5.90;2.58;;;;;;;;;;143735;591;46012;-86
2021/06/06 13:41:47;;;;;;;6.07;2.60;;;;;;;;;;143732;576;46020;-86
2021/06/06 13:44:15;;;;;;;5.35;3.08;;;;;;;;;;143732;971;46012;-86
2021/06/06 13:46:45;;;;;;;5.43;2.87;;;;;;;;;;143734;572;46020;-87
2021/06/06 13:49:12;;;;;;;4.68;2.80;;;;;;;;;;143734;980;46012;-86
2021/06/06 13:51:41;;;;;;;6.30;2.85;;;;;;;;;;143734;631;46023;-86
2021/06/06 13:54:09;;;;;;;5.18;2.95;;;;;;;;;;143731;618;46012;-87
2021/06/06 13:56:37;;;;;;;7.53;2.80;;;;;;;;;;143734;572;46020;-85
2021/06/06 13:59:05;;;;;;;10.60;2.92;;;;;;;;;;143735;583;46021;-87
2021/06/06 14:01:43;;;;;;;10.38;3.00;;;;;;;;;;143733;714;46038;-85
2021/06/06 14:04:11;;;;;;;2.80;2.60;;;;;;;;;;143733;571;46012;-87
2021/06/06 14:06:39;;;;;;;5.68;2.90;;;;;;;;;;143735;565;46021;-88
2021/06/06 14:09:14;;;;;;;9.52;3.00;;;;;;;;;;143734;571;46012;-87
2021/06/06 14:11:48;;;;;;;5.10;3.40;;;;;;;;;;143733;588;46021;-87
2021/06/06 14:14:15;;;;;;;5.25;3.20;;;;;;;;;;143731;598;46012;-88
2021/06/06 14:16:42;;;;;;;7.25;2.90;;;;;;;;;;143735;582;46020;-88
2021/06/06 14:19:13;;;;;;;5.40;3.05;;;;;;;;;;143734;674;46013;-84
2021/06/06 14:21:47;;;;;;;4.95;3.28;;;;;;;;;;143732;591;46023;-88
2021/06/06 14:24:21;;;;;;;6.22;3.15;;;;;;;;;;143734;572;46012;-88
2021/06/06 14:26:52;;;;;;;6.35;2.87;;;;;;;;;;143732;580;46021;-87
2021/06/06 14:29:20;;;;;;;5.68;2.62;;;;;;;;;;143735;603;46018;-87
2021/06/06 14:31:48;;;;;;;7.22;3.30;;;;;;;;;;143731;592;47045;-87
2021/06/06 14:34:17;;;;;;;5.78;3.03;;;;;;;;;;143731;565;46012;-88
2021/06/06 14:36:55;;;;;;;5.22;3.70;;;;;;;;;;143732;590;46021;-87
2021/06/06 14:39:22;;;;;;;9.00;3.85;;;;;;;;;;143735;583;46012;-86
2021/06/06 14:41:52;;;;;;;8.60;3.28;;;;;;;;;;143734;652;46022;-87
2021/06/06 14:44:21;;;;;;;7.00;3.40;;;;;;;;;;143733;570;46012;-88
2021/06/06 14:46:48;;;;;;;5.45;3.55;;;;;;;;;;143732;565;47020;-87
2021/06/06 14:49:15;;;;;;;5.25;3.85;;;;;;;;;;143734;565;46013;-86
2021/06/06 14:51:43;;;;;;;7.22;3.33;;;;;;;;;;143733;569;46053;-88
2021/06/06 14:54:13;;;;;;;6.15;3.55;;;;;;;;;;143734;653;46020;-88
2021/06/06 14:56:41;;;;;;;4.18;2.90;;;;;;;;;;143731;591;46020;-88
2021/06/06 14:59:08;;;;;;;11.48;2.87;;;;;;;;;;143737;623;45021;-89
2021/06/06 15:01:36;;;;;;;3.83;3.17;;;;;;;;;;143732;585;46022;-85
2021/06/06 15:04:04;;;;;;;5.68;2.75;;;;;;;;;;143731;711;46012;-88
2021/06/06 15:06:40;;;;;;;3.85;2.87;;;;;;;;;;143736;585;46020;-88
2021/06/06 15:09:20;;;;;;;6.28;3.30;;;;;;;;;;143734;973;46012;-87
2021/06/06 15:11:50;;;;;;;4.45;3.05;;;;;;;;;;143732;618;46017;-87
2021/06/06 15:14:19;;;;;;;11.77;3.60;;;;;;;;;;143734;577;46921;-88
2021/06/06 15:16:47;;;;;;;6.18;3.15;;;;;;;;;;143732;842;46020;-87
2021/06/06 15:19:14;;;;;;;4.95;3.00;;;;;;;;;;143735;759;46012;-87
2021/06/06 15:21:47;;;;;;;8.98;3.67;;;;;;;;;;143732;587;46014;-87
2021/06/06 15:24:37;;;;;;;7.35;2.75;;;;;;;;;;143731;644;46020;-89
2021/06/06 15:27:17;;;;;;;3.78;2.80;;;;;;;;;;143738;581;45021;-88
2021/06/06 15:29:50;;;;;;;4.93;2.72;;;;;;;;;;143739;586;45020;-90
2021/06/06 15:32:18;;;;;;;4.53;2.75;;;;;;;;;;143733;982;46022;-87
2021/06/06 15:34:45;;;;;;;7.85;3.22;;;;;;;;;;143732;622;46013;-87
2021/06/06 15:37:11;;;;;;;6.18;3.37;;;;;;;;;;143735;960;46020;-89
2021/06/06 15:39:38;;;;;;;4.80;3.08;;;;;;;;;;143734;688;46012;-87
2021/06/06 15:42:07;;;;;;;8.10;3.45;;;;;;;;;;143731;730;47022;-87